Погода Блантайрна 2 недели

Южная Провинция, Малави

16 - 29 июля
  • 16июля
    Сегодня
    +12°
    +26°
    Ясно и безоблачно
    ВремяПогодаТемператураВлажностьДавлениеВетер, м/сВероятность осадков
    02:00Ясно и безоблачно+15°C50 %674 мм1.7 м/с5 %
    05:00Ясно и безоблачно+13°C61 %674 мм2.3 м/с5 %
    08:00Ясно и безоблачно+20°C44 %677 мм1.8 м/с5 %
    11:00Ясно и безоблачно+24°C32 %678 мм0.7 м/с5 %
    14:00Ясно и безоблачно+26°C28 %676 мм1.8 м/с5 %
    17:00Практически безоблачно+22°C31 %676 мм2.9 м/с5 %
    20:00Ясно и безоблачно+18°C43 %676 мм3.3 м/с5 %
    23:00Ясно и безоблачно+16°C54 %676 мм3.0 м/с5 %
  • 17июля
    Среда
    +12°
    +26°
    Ясно и безоблачно
    ВремяПогодаТемператураВлажностьДавлениеВетер, м/сВероятность осадков
    02:00Ясно и безоблачно+14°C59 %674 мм2.5 м/с5 %
    05:00Ясно и безоблачно+12°C64 %674 мм1.6 м/с5 %
    08:00Ясно и безоблачно+19°C48 %678 мм1.8 м/с5 %
    11:00Ясно и безоблачно+24°C36 %679 мм1.0 м/с5 %
    14:00Ясно и безоблачно+26°C34 %677 мм1.4 м/с5 %
    17:00Ясно и безоблачно+23°C40 %677 мм1.3 м/с5 %
    20:00Ясно и безоблачно+18°C46 %676 мм3.4 м/с5 %
    23:00Ясно и безоблачно+17°C55 %676 мм3.6 м/с5 %
  • 18июля
    Четверг
    +13°
    +26°
    Облачно с прояснениями
    ВремяПогодаТемператураВлажностьДавлениеВетер, м/сВероятность осадков
    02:00Ясно и безоблачно+15°C61 %674 мм2.6 м/с5 %
    05:00Ясно и безоблачно+12°C71 %674 мм1.8 м/с5 %
    08:00Практически безоблачно+19°C51 %678 мм1.7 м/с5 %
    11:00Небольшая облачность+24°C39 %678 мм0.8 м/с5 %
    14:00Облачно с прояснениями+26°C37 %677 мм0.8 м/с5 %
    17:00Облачно с прояснениями+24°C46 %677 мм0.7 м/с5 %
    20:00Ясно и безоблачно+18°C64 %676 мм2.6 м/с5 %
    23:00Ясно и безоблачно+17°C72 %676 мм2.9 м/с5 %
  • 19июля
    Пятница
    +13°
    +27°
    Ясно и безоблачно
    ВремяПогодаТемператураВлажностьДавлениеВетер, м/сВероятность осадков
    02:00Ясно и безоблачно+15°C74 %674 мм2.2 м/с5 %
    05:00Ясно и безоблачно+13°C78 %674 мм1.8 м/с5 %
    08:00Ясно и безоблачно+20°C54 %677 мм1.0 м/с5 %
    11:00Ясно и безоблачно+25°C38 %678 мм1.8 м/с5 %
    14:00Ясно и безоблачно+27°C35 %676 мм2.2 м/с5 %
    17:00Ясно и безоблачно+24°C49 %676 мм1.8 м/с5 %
    20:00Ясно и безоблачно+19°C53 %676 мм2.8 м/с5 %
    23:00Ясно и безоблачно+18°C64 %675 мм2.5 м/с5 %
  • 20июля
    Суббота
    +13°
    +28°
    Ясно и безоблачно
    ВремяПогодаТемператураВлажностьДавлениеВетер, м/сВероятность осадков
    02:00Ясно и безоблачно+15°C69 %673 мм1.9 м/с5 %
    05:00Ясно и безоблачно+14°C70 %673 мм1.8 м/с5 %
    08:00Ясно и безоблачно+21°C52 %677 мм1.6 м/с5 %
    11:00Ясно и безоблачно+25°C34 %677 мм1.5 м/с5 %
    14:00Ясно и безоблачно+27°C33 %676 мм2.0 м/с5 %
    17:00Ясно и безоблачно+25°C38 %676 мм2.1 м/с5 %
    20:00Ясно и безоблачно+20°C51 %676 мм3.7 м/с5 %
    23:00Ясно и безоблачно+18°C61 %675 мм3.4 м/с5 %
Мы используем cookies
Соглашаюсь